Aeroporto :
LOGIN :

Iscrizione | Disclaimer

   EN    FR    IT 

 










Sommario :    VFR   VFR Marginale   IFR   IFR Intensivo   IFR Molto Intensivo
Visibilità : 
Base nubi : 
>= 8 km
>= 3000ft
5 / 8 km
1000 / 3000 ft
1500m / 5 km
500 / 1000 ft
800 / 1500m
200 / 500 ft
< 800m
< 200 ft
Simboli :   Temporali  Nebbia  Neve Forte  Precipitazioni Forti  Vento > 20 kt
SIGMETs :   Varie  Temporali  Ghiacco  Turbolenza  Onda orograficha  Ceneri Vulcaniche






- Altitudine del aeroporto : 1674 ft
- Codice IATA : BRN


LSZB - Bern Belp

ULTIMO METAR :
  • 240920Z VRB01KT 7000 3000NE VCFG FEW003 M01/M01 Q1025

METARs OBSOLETI :
  • 240850Z 00000KT 6000 VCFG NSC M02/M02 Q1026 REFZDZ
  • 240820Z VRB01KT 5000 R14/0500U BCFG NSC M03/M03 Q1026
  • 240750Z VRB01KT 5000 R14/0125U MIFG NSC M04/M04 Q1026 BECMG NSW
  • 240720Z VRB01KT 0300 R14/0075N FZFG NSC M05/M05 Q1026 BECMG PRFG
  • 240650Z VRB01KT 0750 R14/0150N FZFG NSC M05/M05 Q1026 REFZDZ NOSIG

TAF TAF LSZB
Valido dal 24 a 09 ore il 24 a 18 ore UTC


240825Z 2409/2418 VRB03KT 4000 BCFG NSC
BECMG 2409/2412 6000 BR
ATIS : +41 22 417 40 76



MetMap, La meteo Aeronautica in un colpo d'occhio ! - Copyright ORBIFLY Dicembre 2007 - Disclaimer

ORBIFLY MET'MAP TEAM :

Programmazione e sviluppo : Alexandra Zaïnal
Concezione : Baudouin d'Aumeries
Aiuto per la programmazione : Marc-Olivier Méhu
Supporto tecnico e logistico : Manuel Goepfert
Aiuto per la traduzione : Arnaldo La Scala

Contatto : metmap@orbifly.com




FONTI E CREDITI :

   NOAA